Time;durP1;ratioP1;P1;durP2;ratioP2;P2;SDS_P1;SDS_P2;PMS_P1;PMS_P2;Temp;Humidity;BMP_temperature;BMP_pressure;BME280_temperature;BME280_humidity;BME280_pressure;Samples;Min_cycle;Max_cycle;Signal;HPM_P1;HPM_P2
2022/08/01 00:03:37;;;;;;;4.80;2.30;;;;;;;12.38;80.33;99582.36;213185;1274;140693;-65
2022/08/01 00:08:40;;;;;;;6.30;2.30;;;;;;;12.33;80.41;99582.05;215700;1274;140453;-65
2022/08/01 00:13:43;;;;;;;2.50;2.30;;;;;;;12.29;80.37;99581.88;214643;1274;140858;-66
2022/08/01 00:18:46;;;;;;;2.20;2.00;;;;;;;12.26;80.72;99582.70;213702;1276;140231;-65
2022/08/01 00:23:48;;;;;;;2.60;2.40;;;;;;;12.24;80.75;99581.61;216002;1274;140089;-67
2022/08/01 00:28:51;;;;;;;5.10;2.20;;;;;;;12.21;80.49;99578.48;215204;1274;152251;-66
2022/08/01 00:33:54;;;;;;;2.10;2.00;;;;;;;12.19;80.51;99574.04;216003;1274;140672;-67
2022/08/01 00:38:57;;;;;;;1.70;1.60;;;;;;;12.13;80.32;99569.89;216194;1274;140552;-66
2022/08/01 00:44:04;;;;;;;2.40;2.20;;;;;;;12.04;80.44;99578.31;214162;1274;140548;-66
2022/08/01 00:49:09;;;;;;;1.90;1.80;;;;;;;12.00;80.82;99580.77;214407;1274;139729;-67
2022/08/01 00:54:13;;;;;;;2.70;2.50;;;;;;;11.97;80.67;99573.45;213312;1275;141430;-67
2022/08/01 00:59:21;;;;;;;2.60;2.40;;;;;;;11.98;81.23;99573.96;213966;1275;140322;-67
2022/08/01 01:04:25;;;;;;;2.70;2.60;;;;;;;11.98;81.03;99579.46;213726;1276;141713;-66
2022/08/01 01:10:05;;;;;;;2.80;2.60;;;;;;;11.97;81.11;99576.82;214164;1275;152532;-65
2022/08/01 01:15:35;;;;;;;2.10;2.00;;;;;;;11.90;81.28;99578.03;213012;1277;141267;-66
2022/08/01 01:20:45;;;;;;;17.40;2.80;;;;;;;11.86;81.26;99574.46;213660;1275;140034;-64
2022/08/01 01:26:07;;;;;;;1.50;1.40;;;;;;;11.80;81.06;99574.10;213205;1276;161971;-68
2022/08/01 01:31:13;;;;;;;3.10;1.70;;;;;;;11.68;80.95;99570.48;214466;1276;140562;-65
2022/08/01 01:36:18;;;;;;;2.00;1.90;;;;;;;11.54;80.80;99565.49;214266;1275;139285;-65
2022/08/01 01:41:22;;;;;;;1.90;1.80;;;;;;;11.43;81.27;99569.38;213021;1276;139644;-65
2022/08/01 01:46:28;;;;;;;2.30;2.20;;;;;;;11.35;81.38;99563.21;213509;1277;141163;-65
2022/08/01 01:51:31;;;;;;;2.00;1.90;;;;;;;11.34;81.77;99567.15;213461;1274;140899;-66
2022/08/01 01:56:35;;;;;;;2.70;1.60;;;;;;;11.35;81.74;99569.09;214520;1276;140885;-66
2022/08/01 02:01:38;;;;;;;3.90;2.70;;;;;;;11.34;81.71;99565.55;214888;1275;140785;-66
2022/08/01 02:07:03;;;;;;;3.30;2.00;;;;;;;11.37;81.83;99557.16;213189;1276;142469;-64
2022/08/01 02:12:10;;;;;;;2.70;2.50;;;;;;;11.31;81.88;99556.55;214511;1274;140139;-65
2022/08/01 02:17:17;;;;;;;2.00;1.90;;;;;;;11.30;82.05;99557.13;215217;1275;140799;-67
2022/08/01 02:22:32;;;;;;;2.30;2.20;;;;;;;11.25;81.97;99551.34;213749;1274;141182;-65
2022/08/01 02:27:43;;;;;;;2.40;2.30;;;;;;;11.23;82.04;99555.73;215886;1274;141451;-66
2022/08/01 02:32:49;;;;;;;3.00;2.80;;;;;;;11.19;81.85;99557.86;216218;1274;141208;-64
2022/08/01 02:37:55;;;;;;;2.30;2.20;;;;;;;11.21;82.29;99559.86;216145;1273;141584;-64
2022/08/01 02:43:00;;;;;;;2.60;2.50;;;;;;;11.33;82.69;99563.88;216147;1274;141180;-64
2022/08/01 02:48:09;;;;;;;2.50;2.30;;;;;;;11.46;82.65;99562.59;215483;1274;140621;-63
2022/08/01 02:53:14;;;;;;;2.60;2.50;;;;;;;11.43;82.35;99563.02;215961;1274;141464;-66
2022/08/01 02:58:20;;;;;;;2.00;1.90;;;;;;;11.40;82.54;99565.43;214573;1274;140938;-62
2022/08/01 03:03:31;;;;;;;2.80;2.40;;;;;;;11.43;82.67;99566.55;214544;1274;141686;-64
2022/08/01 03:08:36;;;;;;;2.50;2.40;;;;;;;11.48;83.04;99563.80;214484;1274;141383;-64
2022/08/01 03:13:40;;;;;;;2.80;2.60;;;;;;;11.56;83.08;99562.42;212949;1277;140668;-65
2022/08/01 03:18:44;;;;;;;2.50;2.40;;;;;;;11.64;83.05;99558.25;215375;1276;140150;-65
2022/08/01 03:23:50;;;;;;;2.20;2.10;;;;;;;11.66;82.62;99554.32;214338;1274;139737;-64
2022/08/01 03:29:01;;;;;;;2.50;2.40;;;;;;;11.58;82.54;99556.33;212988;1274;140103;-65
2022/08/01 03:34:06;;;;;;;2.70;2.60;;;;;;;11.49;82.33;99551.38;213621;1276;140324;-66
2022/08/01 03:39:11;;;;;;;2.40;2.30;;;;;;;11.41;82.54;99551.95;213996;1275;231196;-64
2022/08/01 03:44:18;;;;;;;2.50;2.40;;;;;;;11.38;82.70;99558.67;214007;1276;140118;-65
2022/08/01 03:49:25;;;;;;;2.60;2.50;;;;;;;11.36;82.73;99561.05;214392;1276;141408;-65
2022/08/01 03:54:33;;;;;;;2.80;2.60;;;;;;;11.44;83.06;99566.29;213445;1274;141631;-65
2022/08/01 03:59:37;;;;;;;2.40;2.30;;;;;;;11.65;83.66;99571.45;213445;1275;141951;-64
2022/08/01 04:04:41;;;;;;;2.90;2.80;;;;;;;11.76;83.12;99583.38;213567;1276;142932;-64
2022/08/01 04:09:45;;;;;;;3.30;3.10;;;;;;;11.89;83.24;99585.61;213278;1274;141121;-64
2022/08/01 04:14:48;;;;;;;3.10;2.80;;;;;;;12.01;83.35;99583.52;214026;1275;140164;-64
2022/08/01 04:19:51;;;;;;;2.90;2.70;;;;;;;12.22;83.64;99583.89;214415;1275;140721;-63
2022/08/01 04:24:57;;;;;;;4.20;2.90;;;;;;;12.44;83.01;99583.09;214160;1276;141210;-65
2022/08/01 04:30:00;;;;;;;3.70;3.40;;;;;;;12.65;83.08;99577.25;214989;1274;142817;-66
2022/08/01 04:35:07;;;;;;;2.90;2.70;;;;;;;13.00;83.30;99576.69;215540;1274;142257;-65
2022/08/01 04:40:30;;;;;;;3.20;3.00;;;;;;;13.52;83.41;99573.41;215787;1274;141172;-66
2022/08/01 04:45:34;;;;;;;2.80;2.60;;;;;;;13.88;82.65;99569.72;216051;1274;140244;-66
2022/08/01 04:50:37;;;;;;;3.10;2.90;;;;;;;14.21;82.28;99571.76;215108;1273;140709;-64
2022/08/01 04:55:40;;;;;;;2.90;2.70;;;;;;;14.78;81.94;99571.29;216013;1274;142215;-63
2022/08/01 05:00:43;;;;;;;2.60;2.50;;;;;;;15.03;81.05;99564.87;215828;1274;141053;-62
2022/08/01 05:05:45;;;;;;;3.50;3.20;;;;;;;15.25;80.68;99567.41;214350;1274;140824;-63
2022/08/01 05:10:49;;;;;;;4.20;3.70;;;;;;;15.52;81.19;99573.19;215078;1274;140543;-63
2022/08/01 05:15:53;;;;;;;5.90;3.70;;;;;;;15.75;81.51;99573.55;214272;1274;139662;-63
2022/08/01 05:20:57;;;;;;;3.80;3.50;;;;;;;16.39;80.85;99571.84;213593;1274;141137;-63
2022/08/01 05:26:01;;;;;;;3.20;3.00;;;;;;;18.08;78.91;99567.36;213433;1276;141374;-62
2022/08/01 05:31:05;;;;;;;3.40;3.30;;;;;;;21.36;74.62;99564.83;214200;1274;141577;-63
2022/08/01 05:36:09;;;;;;;5.40;2.90;;;;;;;25.40;70.60;99565.33;213901;1276;140304;-63
2022/08/01 05:41:13;;;;;;;3.00;2.80;;;;;;;28.55;65.65;99563.08;214302;1274;230241;-62
2022/08/01 05:46:17;;;;;;;3.30;2.90;;;;;;;31.07;61.22;99569.96;214268;1274;140322;-63
2022/08/01 05:51:20;;;;;;;1.60;1.60;;;;;;;32.66;56.73;99573.79;214403;1274;140051;-64
2022/08/01 05:56:24;;;;;;;6.60;1.90;;;;;;;34.36;53.30;99575.80;213165;1274;139798;-64
2022/08/01 06:01:42;;;;;;;1.70;1.60;;;;;;;35.08;49.62;99570.27;214981;1275;139799;-67
2022/08/01 06:06:48;;;;;;;2.40;2.20;;;;;;;34.83;48.56;99568.97;214437;1274;139958;-65
2022/08/01 06:11:52;;;;;;;1.40;1.40;;;;;;;34.07;47.69;99574.38;214672;1272;141060;-65
2022/08/01 06:16:58;;;;;;;1.90;1.80;;;;;;;33.32;47.06;99575.91;214721;1275;140581;-66
2022/08/01 06:22:02;;;;;;;1.40;1.40;;;;;;;32.14;46.03;99576.04;214261;1274;140102;-64
2022/08/01 06:27:05;;;;;;;7.30;2.30;;;;;;;30.13;46.72;99580.73;214884;1274;140686;-65
2022/08/01 06:32:24;;;;;;;1.80;1.70;;;;;;;28.15;48.71;99579.19;215097;1274;139890;-64
2022/08/01 06:37:32;;;;;;;2.00;1.80;;;;;;;26.79;50.47;99582.95;215975;1274;139187;-65
2022/08/01 06:42:36;;;;;;;3.70;2.70;;;;;;;25.65;52.45;99589.61;215686;1276;139076;-65
2022/08/01 06:47:40;;;;;;;3.00;2.30;;;;;;;25.04;54.48;99581.78;216029;1276;140337;-65
2022/08/01 06:52:43;;;;;;;2.80;2.60;;;;;;;24.70;55.48;99583.99;214594;1274;141120;-65
2022/08/01 06:57:50;;;;;;;3.40;2.50;;;;;;;24.36;57.17;99578.65;214336;1274;140631;-64
2022/08/01 07:02:55;;;;;;;6.70;3.10;;;;;;;24.76;57.09;99577.09;215207;1274;140458;-64
2022/08/01 07:07:58;;;;;;;;;;;;;;;25.06;57.93;99570.70;214776;1274;139720;-64
2022/08/01 07:13:07;;;;;;;2.40;2.30;;;;;;;26.13;57.19;99568.03;214564;1274;126341;-64
2022/08/01 07:18:10;;;;;;;3.90;2.60;;;;;;;27.98;56.84;99566.77;215352;1274;164258;-65
2022/08/01 07:23:13;;;;;;;2.50;2.30;;;;;;;28.81;54.97;99568.16;213649;1274;140422;-64
2022/08/01 07:28:16;;;;;;;4.40;2.50;;;;;;;28.65;53.87;99565.77;213619;1274;139309;-65
2022/08/01 07:33:20;;;;;;;2.40;2.30;;;;;;;28.10;53.68;99563.96;213772;1274;1162652;-65
2022/08/01 07:38:24;;;;;;;3.50;2.20;;;;;;;28.14;54.03;99561.95;213904;1274;139599;-66
2022/08/01 07:43:26;;;;;;;3.00;2.50;;;;;;;28.14;54.02;99564.68;213819;1274;140283;-66
2022/08/01 07:48:29;;;;;;;3.00;2.80;;;;;;;28.07;54.44;99568.65;213687;1274;141435;-65
2022/08/01 07:53:31;;;;;;;2.90;2.70;;;;;;;28.00;55.05;99561.52;213365;1274;140717;-64
2022/08/01 07:58:34;;;;;;;5.20;3.20;;;;;;;28.19;54.98;99558.01;213604;1274;140451;-66
2022/08/01 08:03:37;;;;;;;3.00;2.70;;;;;;;28.20;55.15;99559.18;214095;1275;140384;-65
2022/08/01 08:08:39;;;;;;;3.20;2.90;;;;;;;28.30;54.67;99552.31;214658;1274;141163;-66
2022/08/01 08:13:42;;;;;;;4.30;3.30;;;;;;;28.13;54.57;99554.02;214083;1274;139554;-66
2022/08/01 08:18:44;;;;;;;2.70;2.50;;;;;;;27.92;54.61;99557.20;214210;1273;140711;-66
2022/08/01 08:29:08;;;;;;;2.20;2.10;;;;;;;27.16;53.59;99557.55;214840;1274;139929;-65
2022/08/01 08:34:11;;;;;;;2.60;2.40;;;;;;;26.88;54.06;99562.05;213856;1274;140420;-64
2022/08/01 08:39:14;;;;;;;3.10;2.70;;;;;;;26.71;54.53;99564.06;214046;1274;140966;-64
2022/08/01 08:44:22;;;;;;;6.10;2.60;;;;;;;26.40;54.35;99563.63;215938;1274;140782;-65
2022/08/01 08:49:28;;;;;;;2.40;2.30;;;;;;;26.25;54.85;99564.85;213553;1275;140287;-65
2022/08/01 08:54:41;;;;;;;8.20;2.60;;;;;;;26.47;54.91;99561.48;214011;1274;140524;-65
2022/08/01 08:59:44;;;;;;;1.70;1.60;;;;;;;26.75;54.17;99565.35;215653;1274;141034;-65
2022/08/01 09:04:49;;;;;;;2.30;2.00;;;;;;;27.22;54.01;99564.66;214559;1274;150764;-66
2022/08/01 09:09:52;;;;;;;3.70;2.30;;;;;;;27.65;53.64;99571.06;213754;1274;142337;-65
2022/08/01 09:14:57;;;;;;;2.80;2.60;;;;;;;27.86;52.48;99577.69;215503;1274;141151;-65
2022/08/01 09:19:59;;;;;;;2.10;2.00;;;;;;;28.06;52.90;99574.35;213543;1276;140555;-64
2022/08/01 09:25:08;;;;;;;2.30;2.20;;;;;;;28.03;51.91;99571.38;212903;1274;140367;-64
2022/08/01 09:30:18;;;;;;;2.60;2.10;;;;;;;27.66;51.80;99572.75;213289;1274;140178;-65
2022/08/01 09:35:28;;;;;;;3.00;2.70;;;;;;;27.65;52.10;99578.17;214041;1274;140194;-64
2022/08/01 09:41:04;;;;;;;2.50;2.30;;;;;;;28.10;52.42;99576.49;214859;1274;140362;-65
2022/08/01 09:46:13;;;;;;;1.80;1.70;;;;;;;28.35;51.56;99578.44;213767;1274;141970;-65
2022/08/01 09:51:31;;;;;;;3.40;2.60;;;;;;;28.32;50.88;99576.70;213705;1274;140202;-64
2022/08/01 09:56:54;;;;;;;2.70;2.50;;;;;;;28.28;51.32;99573.09;213904;1274;139740;-64
2022/08/01 10:01:57;;;;;;;3.00;2.60;;;;;;;28.52;51.37;99578.11;214935;1274;139935;-66
2022/08/01 10:07:07;;;;;;;2.60;2.40;;;;;;;28.64;50.36;99579.05;215011;1274;140544;-66
2022/08/01 10:12:19;;;;;;;2.70;2.50;;;;;;;28.73;50.13;99573.61;214397;1274;139354;-66
2022/08/01 10:17:25;;;;;;;2.30;2.20;;;;;;;28.65;50.15;99574.16;214461;1274;142893;-66
2022/08/01 10:22:49;;;;;;;;;;;;;;;28.88;50.34;99571.05;215227;1274;140352;-66
2022/08/01 10:27:54;;;;;;;2.80;2.50;;;;;;;29.26;50.04;99573.15;215484;1274;125765;-66
2022/08/01 10:32:58;;;;;;;2.80;2.70;;;;;;;28.91;48.68;99571.90;215400;1274;142051;-67
2022/08/01 10:38:01;;;;;;;7.30;3.40;;;;;;;28.64;49.10;99577.98;216190;1274;139937;-68
2022/08/01 10:43:10;;;;;;;7.80;3.60;;;;;;;28.09;48.97;99566.60;215347;1272;140836;-67
2022/08/01 10:48:51;;;;;;;3.50;3.20;;;;;;;27.50;49.59;99561.59;214819;1274;140010;-66
2022/08/01 10:53:57;;;;;;;3.80;3.50;;;;;;;27.12;49.78;99558.84;216099;1274;139637;-66
2022/08/01 10:59:03;;;;;;;3.00;2.80;;;;;;;27.26;50.91;99554.91;216140;1274;140502;-66
2022/08/01 11:04:14;;;;;;;5.00;3.60;;;;;;;27.32;50.64;99556.82;214455;1274;139314;-65
2022/08/01 11:09:26;;;;;;;3.40;3.20;;;;;;;27.30;51.04;99554.48;213728;1274;140342;-65
2022/08/01 11:15:16;;;;;;;5.80;3.80;;;;;;;27.22;51.33;99557.88;213939;1274;150803;-65
2022/08/01 11:20:35;;;;;;;4.90;3.30;;;;;;;27.14;51.24;99557.10;213821;1274;139817;-65
2022/08/01 11:25:49;;;;;;;3.90;3.20;;;;;;;27.14;51.45;99552.95;214249;1274;140122;-66
2022/08/01 11:31:12;;;;;;;5.00;4.30;;;;;;;27.53;51.66;99552.52;214009;1274;139786;-65
2022/08/01 11:36:15;;;;;;;5.20;3.70;;;;;;;27.76;51.25;99547.97;214198;1274;139157;-65
2022/08/01 11:41:29;;;;;;;3.80;3.60;;;;;;;27.80;51.38;99541.27;213213;1276;140658;-65
2022/08/01 11:47:00;;;;;;;4.10;3.70;;;;;;;27.68;50.80;99547.76;213439;1276;139989;-65
2022/08/01 11:52:08;;;;;;;3.80;3.50;;;;;;;27.48;50.89;99547.61;213225;1277;139430;-65
2022/08/01 11:57:14;;;;;;;4.30;3.90;;;;;;;27.61;50.96;99550.48;214039;1276;139502;-65
2022/08/01 12:02:27;;;;;;;4.10;3.80;;;;;;;27.73;50.40;99549.52;213342;1276;141028;-65
2022/08/01 12:07:33;;;;;;;6.20;3.60;;;;;;;28.06;50.11;99546.81;214275;1274;151038;-65
2022/08/01 12:12:42;;;;;;;3.80;3.30;;;;;;;28.10;50.08;99544.55;213710;1277;140130;-65
2022/08/01 12:17:50;;;;;;;3.50;3.10;;;;;;;27.91;49.52;99543.45;214384;1277;139218;-65
2022/08/01 12:23:09;;;;;;;3.80;3.50;;;;;;;27.93;49.48;99539.22;214771;1274;139079;-66
2022/08/01 12:28:15;;;;;;;3.90;3.20;;;;;;;28.25;49.03;99536.30;213195;1277;140184;-65
2022/08/01 12:33:20;;;;;;;4.80;3.90;;;;;;;28.46;49.51;99537.86;214695;1276;139727;-66
2022/08/01 12:38:24;;;;;;;3.60;3.30;;;;;;;28.66;49.01;99532.19;216015;1276;139098;-66
2022/08/01 12:43:31;;;;;;;3.20;2.60;;;;;;;28.84;49.09;99532.40;214536;1274;140601;-66
2022/08/01 12:48:34;;;;;;;9.40;2.70;;;;;;;28.66;48.20;99532.02;215853;1274;139871;-66
2022/08/01 12:53:36;;;;;;;3.60;3.20;;;;;;;28.28;47.92;99533.31;215196;1276;139217;-66
2022/08/01 12:58:43;;;;;;;4.40;3.20;;;;;;;28.21;48.19;99531.58;213896;1275;139933;-65
2022/08/01 13:04:04;;;;;;;3.40;3.20;;;;;;;28.26;48.81;99533.20;215217;1274;140356;-66
2022/08/01 13:09:11;;;;;;;3.30;3.10;;;;;;;28.10;48.51;99533.83;214003;1274;140208;-66
2022/08/01 13:14:28;;;;;;;4.50;3.30;;;;;;;28.23;48.44;99532.96;214745;1274;140048;-65
2022/08/01 13:19:44;;;;;;;4.20;3.60;;;;;;;28.56;48.30;99538.70;213449;1274;140795;-65
2022/08/01 13:24:47;;;;;;;3.40;2.90;;;;;;;28.56;47.61;99537.84;213413;1274;140750;-66
2022/08/01 13:29:53;;;;;;;3.00;2.80;;;;;;;28.46;47.66;99538.02;213741;1274;141616;-65
2022/08/01 13:35:05;;;;;;;4.00;3.60;;;;;;;28.13;47.31;99528.65;214016;1274;140066;-66
2022/08/01 13:40:09;;;;;;;3.30;3.00;;;;;;;27.94;47.55;99528.96;213486;1274;139621;-66
2022/08/01 13:45:11;;;;;;;4.00;3.70;;;;;;;27.95;47.89;99526.10;213300;1274;140464;-66
2022/08/01 13:50:17;;;;;;;10.00;4.20;;;;;;;27.94;48.16;99527.17;213604;1274;140004;-65
2022/08/01 13:55:21;;;;;;;4.60;4.00;;;;;;;27.92;48.24;99527.97;213260;1276;140274;-65
2022/08/01 14:00:24;;;;;;;6.70;4.20;;;;;;;27.91;47.96;99522.80;214561;1274;139656;-66
2022/08/01 14:05:27;;;;;;;4.10;3.70;;;;;;;27.65;48.02;99524.51;213103;1274;139420;-65
2022/08/01 14:10:30;;;;;;;4.50;4.20;;;;;;;27.51;48.34;99526.81;215151;1274;141742;-65
2022/08/01 14:15:34;;;;;;;4.60;4.20;;;;;;;27.50;49.19;99527.42;214317;1274;139266;-66
2022/08/01 14:20:42;;;;;;;4.90;4.50;;;;;;;27.64;49.18;99529.27;215255;1275;138731;-66
2022/08/01 14:25:45;;;;;;;5.30;4.80;;;;;;;27.55;49.07;99530.95;215402;1276;141329;-66
2022/08/01 14:31:08;;;;;;;4.50;4.20;;;;;;;27.59;49.76;99531.88;215533;1276;139195;-66
2022/08/01 14:36:11;;;;;;;5.00;4.10;;;;;;;27.62;49.68;99532.73;216174;1275;139393;-66
2022/08/01 14:41:32;;;;;;;4.40;4.10;;;;;;;27.61;49.55;99529.66;216284;1274;139632;-66
2022/08/01 14:46:34;;;;;;;5.30;4.80;;;;;;;27.28;49.19;99528.48;216164;1274;139711;-65
2022/08/01 14:51:37;;;;;;;5.40;5.10;;;;;;;27.06;50.68;99536.24;215298;1274;140046;-65
2022/08/01 14:56:40;;;;;;;5.40;5.00;;;;;;;26.91;51.45;99542.20;215272;1274;140511;-66
2022/08/01 15:01:42;;;;;;;5.40;4.90;;;;;;;26.89;51.79;99540.52;215591;1274;141018;-66
2022/08/01 15:06:45;;;;;;;6.10;4.70;;;;;;;27.05;51.61;99538.16;214280;1274;140630;-66
2022/08/01 15:11:47;;;;;;;5.50;4.50;;;;;;;27.20;51.38;99539.90;214780;1274;140439;-66
2022/08/01 15:16:50;;;;;;;4.80;4.50;;;;;;;27.27;50.76;99531.64;213371;1274;141346;-66
2022/08/01 15:21:53;;;;;;;4.60;4.30;;;;;;;27.31;50.88;99535.59;214448;1274;141217;-66
2022/08/01 15:26:56;;;;;;;6.60;5.00;;;;;;;27.35;50.20;99536.63;213627;1274;139705;-66
2022/08/01 15:32:02;;;;;;;5.50;5.10;;;;;;;27.45;50.01;99533.23;212965;1274;139837;-65
2022/08/01 15:37:06;;;;;;;5.60;5.00;;;;;;;27.32;49.67;99535.31;213558;1275;139806;-65
2022/08/01 15:42:13;;;;;;;9.50;5.50;;;;;;;27.12;49.52;99536.36;213485;1277;140332;-65
2022/08/01 15:47:23;;;;;;;5.70;5.10;;;;;;;26.89;49.88;99535.46;214223;1274;139707;-65
2022/08/01 15:52:27;;;;;;;12.70;5.80;;;;;;;26.64;50.18;99539.16;213913;1274;139981;-64
2022/08/01 15:57:34;;;;;;;9.00;5.10;;;;;;;26.41;51.10;99541.08;213781;1274;140578;-65
2022/08/01 16:02:39;;;;;;;5.60;5.10;;;;;;;26.24;52.17;99541.55;213470;1274;160001;-65
2022/08/01 16:07:44;;;;;;;8.30;5.20;;;;;;;26.05;52.78;99543.44;214247;1276;232435;-65
2022/08/01 16:13:03;;;;;;;5.70;5.30;;;;;;;25.85;54.03;99541.10;214584;1277;140005;-66
2022/08/01 16:18:14;;;;;;;5.40;5.00;;;;;;;25.65;54.86;99546.76;214944;1276;140481;-66
2022/08/01 16:23:17;;;;;;;5.10;4.80;;;;;;;25.50;55.51;99549.71;214731;1275;139948;-65
2022/08/01 16:28:20;;;;;;;5.70;5.30;;;;;;;25.37;56.31;99551.15;215487;1275;140279;-65
2022/08/01 16:33:22;;;;;;;5.10;4.90;;;;;;;25.31;57.27;99545.11;215663;1276;140744;-66
2022/08/01 16:38:45;;;;;;;6.10;5.70;;;;;;;25.23;57.55;99547.70;216157;1275;139977;-66
2022/08/01 16:43:48;;;;;;;6.20;5.80;;;;;;;25.23;58.50;99553.00;215405;1275;139991;-66
2022/08/01 16:48:56;;;;;;;5.90;5.50;;;;;;;25.24;59.10;99554.91;214995;1272;140817;-65
2022/08/01 16:54:00;;;;;;;7.40;5.70;;;;;;;25.20;59.46;99554.37;215048;1274;141045;-66
2022/08/01 16:59:04;;;;;;;6.80;6.20;;;;;;;25.09;59.99;99556.88;214623;1274;139848;-65
2022/08/01 17:04:09;;;;;;;;;;;;;;;25.03;60.36;99557.23;214830;1274;141289;-65
2022/08/01 17:09:12;;;;;;;5.80;5.30;;;;;;;24.90;60.47;99568.71;214499;1274;127477;-66
2022/08/01 17:14:16;;;;;;;7.20;6.50;;;;;;;24.68;59.26;99573.50;214459;1274;140977;-66
2022/08/01 17:19:19;;;;;;;6.70;6.20;;;;;;;24.60;58.91;99575.35;214119;1274;140862;-66
2022/08/01 17:24:34;;;;;;;6.90;6.20;;;;;;;24.55;58.13;99575.64;213199;1274;162124;-66
2022/08/01 17:29:38;;;;;;;7.10;6.20;;;;;;;24.48;58.14;99571.51;214387;1274;140409;-65
2022/08/01 17:34:46;;;;;;;6.60;6.10;;;;;;;24.41;58.19;99569.84;213433;1274;139797;-66
2022/08/01 17:39:48;;;;;;;8.80;6.00;;;;;;;24.21;58.40;99575.02;213427;1274;139602;-65
2022/08/01 17:44:51;;;;;;;6.40;5.90;;;;;;;24.04;58.77;99580.87;214408;1274;139253;-66
2022/08/01 17:50:02;;;;;;;9.30;6.50;;;;;;;23.94;59.22;99591.88;214417;1274;139876;-66
2022/08/01 17:55:06;;;;;;;7.10;6.50;;;;;;;23.81;59.22;99596.51;213283;1274;140160;-65
2022/08/01 18:00:30;;;;;;;6.70;6.10;;;;;;;23.65;59.51;99597.83;213448;1274;139369;-67
2022/08/01 18:05:35;;;;;;;6.70;6.20;;;;;;;23.54;59.96;99601.86;213906;1274;139182;-66
2022/08/01 18:10:39;;;;;;;;;;;;;;;23.45;60.27;99599.84;213744;1274;142373;-66
2022/08/01 18:15:44;;;;;;;8.50;7.70;;;;;;;23.32;60.51;99607.27;215969;1274;126395;-66
2022/08/01 18:20:47;;;;;;;20.80;8.80;;;;;;;23.25;60.84;99601.82;213696;1274;141616;-66
2022/08/01 18:25:50;;;;;;;7.90;7.40;;;;;;;23.15;61.16;99601.94;213397;1274;140102;-66
2022/08/01 18:30:52;;;;;;;7.50;6.80;;;;;;;23.05;61.65;99605.48;213691;1274;140461;-66
2022/08/01 18:35:55;;;;;;;8.00;7.30;;;;;;;22.96;62.28;99613.04;215084;1274;139405;-66
2022/08/01 18:41:08;;;;;;;7.80;7.10;;;;;;;22.86;62.58;99613.08;215916;1276;140255;-66
2022/08/01 18:46:11;;;;;;;12.10;6.40;;;;;;;22.76;63.14;99617.86;216002;1274;139940;-66
2022/08/01 18:51:14;;;;;;;7.30;6.70;;;;;;;22.67;63.36;99628.50;216113;1276;140914;-66
2022/08/01 18:56:18;;;;;;;7.00;6.50;;;;;;;22.58;63.77;99637.20;215845;1275;139512;-66
2022/08/01 19:01:22;;;;;;;7.20;6.80;;;;;;;22.47;64.24;99644.90;215198;1274;140794;-65
2022/08/01 19:06:25;;;;;;;8.00;7.30;;;;;;;22.34;64.76;99649.94;214559;1276;139490;-66
2022/08/01 19:11:29;;;;;;;7.70;7.10;;;;;;;22.18;65.28;99649.63;214743;1274;139764;-65
2022/08/01 19:16:38;;;;;;;7.40;6.70;;;;;;;22.13;65.86;99652.90;214576;1274;139520;-66
2022/08/01 19:21:40;;;;;;;7.90;7.20;;;;;;;22.11;66.14;99658.61;215126;1273;140008;-66
2022/08/01 19:26:51;;;;;;;8.40;7.70;;;;;;;22.06;66.48;99663.56;214385;1274;139994;-66
2022/08/01 19:31:56;;;;;;;7.30;6.80;;;;;;;22.02;66.83;99661.39;213360;1274;474081;-67
2022/08/01 19:36:58;;;;;;;8.80;7.30;;;;;;;21.96;67.11;99667.68;213621;1274;208761;-66
2022/08/01 19:42:02;;;;;;;8.10;7.50;;;;;;;21.89;67.50;99671.12;214127;1274;139799;-66
2022/08/01 19:47:05;;;;;;;6.80;6.30;;;;;;;21.79;67.63;99678.73;213633;1274;139694;-65
2022/08/01 19:52:08;;;;;;;8.50;7.90;;;;;;;21.67;67.88;99680.52;214449;1274;140465;-66
2022/08/01 19:57:14;;;;;;;8.10;7.60;;;;;;;21.65;68.21;99680.52;214859;1274;141364;-65
2022/08/01 20:02:21;;;;;;;8.00;7.40;;;;;;;21.56;68.38;99682.30;214099;1274;221436;-65
2022/08/01 20:07:23;;;;;;;;;;;;;;;21.46;68.34;99684.55;214667;1274;140639;-64
2022/08/01 20:12:27;;;;;;;12.20;8.30;;;;;;;21.29;68.38;99684.30;214344;1274;127654;-65
2022/08/01 20:17:30;;;;;;;10.00;8.70;;;;;;;21.13;68.73;99682.27;212954;1275;142599;-65
2022/08/01 20:22:34;;;;;;;8.00;7.40;;;;;;;21.06;68.88;99678.02;214723;1276;140939;-65
2022/08/01 20:27:39;;;;;;;7.70;7.10;;;;;;;20.94;68.86;99680.58;215558;1274;141692;-65
2022/08/01 20:32:42;;;;;;;7.30;6.60;;;;;;;20.84;68.86;99685.92;215705;1274;140735;-66
2022/08/01 20:37:47;;;;;;;7.40;6.90;;;;;;;20.76;69.00;99685.83;215649;1274;139837;-66
2022/08/01 20:43:08;;;;;;;9.60;8.70;;;;;;;20.65;69.14;99686.77;216021;1274;139834;-65
2022/08/01 20:48:14;;;;;;;8.70;8.00;;;;;;;20.39;69.03;99684.98;213788;1274;140469;-64
2022/08/01 20:53:17;;;;;;;11.00;8.50;;;;;;;20.03;69.20;99684.47;215045;1274;140826;-64
2022/08/01 20:58:45;;;;;;;9.00;8.30;;;;;;;19.89;69.95;99683.29;215679;1274;140685;-65
2022/08/01 21:04:02;;;;;;;9.00;8.30;;;;;;;19.94;70.30;99687.44;215216;1274;140360;-65
2022/08/01 21:09:05;;;;;;;9.40;8.30;;;;;;;19.84;70.72;99688.60;213810;1274;139894;-64
2022/08/01 21:14:12;;;;;;;9.90;8.30;;;;;;;19.83;71.18;99695.58;214765;1274;139834;-65
2022/08/01 21:19:21;;;;;;;8.70;7.70;;;;;;;19.79;71.49;99698.84;214979;1276;140706;-65
2022/08/01 21:24:27;;;;;;;9.00;8.20;;;;;;;19.80;71.73;99694.71;213256;1274;141664;-64
2022/08/01 21:29:31;;;;;;;9.40;8.70;;;;;;;19.81;71.83;99694.10;213317;1274;141027;-65
2022/08/01 21:34:37;;;;;;;9.10;8.30;;;;;;;19.81;71.87;99700.01;213942;1274;141004;-65
2022/08/01 21:39:42;;;;;;;11.30;8.30;;;;;;;19.80;71.91;99703.85;213410;1274;140640;-64
2022/08/01 21:44:45;;;;;;;10.60;9.60;;;;;;;19.78;71.96;99703.18;214380;1273;142000;-65
2022/08/01 21:49:48;;;;;;;9.40;8.60;;;;;;;19.74;72.18;99704.71;213594;1274;140660;-65
2022/08/01 21:55:07;;;;;;;9.50;8.80;;;;;;;19.68;72.10;99709.67;213172;1274;140925;-65
2022/08/01 22:00:21;;;;;;;9.50;8.70;;;;;;;19.62;72.43;99712.09;214404;1274;141413;-64
2022/08/01 22:05:28;;;;;;;9.80;8.90;;;;;;;19.58;72.42;99711.41;213930;1274;141610;-65
2022/08/01 22:10:58;;;;;;;8.70;8.00;;;;;;;19.48;72.16;99717.27;214811;1274;141093;-65
2022/08/01 22:16:04;;;;;;;9.40;8.50;;;;;;;19.28;72.13;99718.37;213836;1274;141522;-65
2022/08/01 22:21:07;;;;;;;9.70;8.80;;;;;;;19.16;72.30;99722.98;213386;1274;141715;-65
2022/08/01 22:26:11;;;;;;;8.80;8.00;;;;;;;19.09;72.53;99721.92;213470;1274;140778;-64
2022/08/01 22:31:15;;;;;;;8.70;8.00;;;;;;;19.00;72.67;99719.89;215780;1274;140276;-64
2022/08/01 22:36:18;;;;;;;8.20;7.70;;;;;;;18.94;72.96;99722.63;214457;1275;140477;-65
2022/08/01 22:41:32;;;;;;;8.10;7.50;;;;;;;18.93;73.02;99725.99;215658;1275;140313;-65
2022/08/01 22:47:02;;;;;;;10.60;9.70;;;;;;;18.91;73.33;99731.97;215951;1274;140723;-64
2022/08/01 22:52:36;;;;;;;10.40;9.40;;;;;;;18.99;74.02;99723.69;215835;1274;142792;-63
2022/08/01 22:58:00;;;;;;;10.60;9.40;;;;;;;19.12;74.42;99722.32;215845;1274;140084;-65
2022/08/01 23:03:14;;;;;;;11.60;9.20;;;;;;;19.25;74.57;99717.89;216008;1274;140688;-65
2022/08/01 23:08:19;;;;;;;12.00;10.50;;;;;;;19.33;74.65;99720.55;214996;1274;142188;-63
2022/08/01 23:13:23;;;;;;;10.30;9.10;;;;;;;19.39;74.75;99726.38;214079;1274;142262;-64
2022/08/01 23:18:27;;;;;;;10.50;9.60;;;;;;;19.40;74.57;99737.34;213102;1274;142626;-63
2022/08/01 23:23:32;;;;;;;12.10;11.10;;;;;;;19.34;74.70;99733.89;213008;1274;141982;-63
2022/08/01 23:28:38;;;;;;;9.50;8.70;;;;;;;19.31;74.92;99736.70;214841;1274;141663;-64
2022/08/01 23:33:40;;;;;;;11.60;9.70;;;;;;;19.27;74.90;99742.33;214173;1274;141195;-66
2022/08/01 23:38:44;;;;;;;10.50;9.50;;;;;;;19.27;75.25;99739.36;213445;1274;142523;-64